createdAt,value
2022-12-23T00:00:13.496Z,96.56
2022-12-23T00:01:13.706Z,96.77
2022-12-23T00:02:14.123Z,96.67
2022-12-23T00:03:14.367Z,97.28
2022-12-23T00:04:14.492Z,96.25
2022-12-23T00:05:14.586Z,97.03
2022-12-23T00:06:14.749Z,96.88
2022-12-23T00:07:14.995Z,96.97
2022-12-23T00:08:15.140Z,96.77
2022-12-23T00:09:15.339Z,96.56
2022-12-23T00:10:15.523Z,96.88
2022-12-23T00:11:15.732Z,97.18
2022-12-23T00:12:15.957Z,97.18
2022-12-23T00:13:16.134Z,97.39
2022-12-23T00:14:21.597Z,97.28
2022-12-23T00:15:16.506Z,97.39
2022-12-23T00:16:16.791Z,97.39
2022-12-23T00:17:22.561Z,97.39
2022-12-23T00:18:17.098Z,97.34
2022-12-23T00:19:17.332Z,97.39
2022-12-23T00:20:17.448Z,97.28
2022-12-23T00:21:17.627Z,96.97
2022-12-23T00:22:17.816Z,96.83
2022-12-23T00:23:18.016Z,97.28
2022-12-23T00:24:18.242Z,97.39
2022-12-23T00:25:18.395Z,97.28
2022-12-23T00:26:18.620Z,97.18
2022-12-23T00:27:18.809Z,96.67
2022-12-23T00:28:19.040Z,96.97
2022-12-23T00:29:19.292Z,96.77
2022-12-23T00:30:19.449Z,96.88
2022-12-23T00:31:19.713Z,97.08
2022-12-23T00:32:19.977Z,96.88
2022-12-23T00:33:20.086Z,97.08
2022-12-23T00:34:20.439Z,97.18
2022-12-23T00:35:20.537Z,97.39
2022-12-23T00:36:20.842Z,97.08
2022-12-23T00:37:20.963Z,97.28
2022-12-23T00:38:21.150Z,96.56
2022-12-23T00:39:21.368Z,97.08
2022-12-23T00:40:21.578Z,96.56
2022-12-23T00:41:21.829Z,97.39
2022-12-23T00:42:22.027Z,97.39
2022-12-23T00:43:22.287Z,97.18
2022-12-23T00:44:22.481Z,96.97
2022-12-23T00:45:22.687Z,97.28
2022-12-23T00:46:22.964Z,97.39
2022-12-23T00:47:23.249Z,97.28
2022-12-23T00:48:23.328Z,98.11
2022-12-23T00:49:23.573Z,98.00
2022-12-23T00:50:23.774Z,98.21
2022-12-23T00:51:23.998Z,97.86
2022-12-23T00:52:24.312Z,97.60
2022-12-23T00:53:24.442Z,97.24
2022-12-23T00:54:24.655Z,97.86
2022-12-23T00:55:24.891Z,97.34
2022-12-23T00:56:25.099Z,98.00
2022-12-23T00:57:25.389Z,97.34
2022-12-23T00:58:25.546Z,97.24
2022-12-23T00:59:25.764Z,97.24
2022-12-23T01:00:25.986Z,97.28
2022-12-23T01:01:26.339Z,97.39
2022-12-23T01:02:26.583Z,97.08
2022-12-23T01:03:26.756Z,97.80
2022-12-23T01:04:26.900Z,97.69
2022-12-23T01:05:27.126Z,97.96
2022-12-23T01:06:27.335Z,98.52
2022-12-23T01:07:27.558Z,98.00
2022-12-23T01:08:27.825Z,97.80
2022-12-23T01:09:27.986Z,97.90
2022-12-23T01:10:28.237Z,98.21
2022-12-23T01:11:28.407Z,98.11
2022-12-23T01:12:28.648Z,98.00
2022-12-23T01:13:28.861Z,97.90
2022-12-23T01:14:29.090Z,97.69
2022-12-23T01:15:29.333Z,97.60
2022-12-23T01:16:29.573Z,97.90
2022-12-23T01:17:29.744Z,98.00
2022-12-23T01:18:29.971Z,97.90
2022-12-23T01:19:30.207Z,98.21
2022-12-23T01:20:30.412Z,98.62
2022-12-23T01:21:30.606Z,98.47
2022-12-23T01:22:30.822Z,98.47
2022-12-23T01:23:31.045Z,97.80
2022-12-23T01:24:31.282Z,97.86
2022-12-23T01:25:31.526Z,97.75
2022-12-23T01:26:31.694Z,97.75
2022-12-23T01:27:31.944Z,97.75
2022-12-23T01:28:32.111Z,98.11
2022-12-23T01:29:32.310Z,97.86
2022-12-23T01:30:32.656Z,98.00
2022-12-23T01:31:32.830Z,97.55
2022-12-23T01:32:32.945Z,97.28
2022-12-23T01:33:33.165Z,97.69
2022-12-23T01:34:37.100Z,98.00
2022-12-23T01:35:33.594Z,98.21
2022-12-23T01:36:33.750Z,97.96
2022-12-23T01:37:33.943Z,98.06
2022-12-23T01:38:34.137Z,98.11
2022-12-23T01:39:34.370Z,97.75
2022-12-23T01:40:34.543Z,97.90
2022-12-23T01:41:34.740Z,98.00
2022-12-23T01:42:34.962Z,98.11
2022-12-23T01:43:35.136Z,98.00
2022-12-23T01:44:35.347Z,97.69
2022-12-23T01:45:35.584Z,97.69
2022-12-23T01:46:35.700Z,97.80
2022-12-23T01:47:35.920Z,97.80
2022-12-23T01:48:36.070Z,97.39
2022-12-23T01:49:36.287Z,97.69
2022-12-23T01:50:36.502Z,98.21
2022-12-23T01:51:36.673Z,97.90
2022-12-23T01:52:36.870Z,98.21
2022-12-23T01:53:37.093Z,98.21
2022-12-23T01:54:37.316Z,98.00
2022-12-23T01:55:37.567Z,97.90
2022-12-23T01:56:37.854Z,97.80
2022-12-23T01:57:37.991Z,97.90
2022-12-23T01:58:38.227Z,98.00
2022-12-23T01:59:38.528Z,98.21
2022-12-23T02:00:38.684Z,97.80
2022-12-23T02:01:39.127Z,98.11
2022-12-23T02:02:39.231Z,98.11
2022-12-23T02:03:39.375Z,98.00
2022-12-23T02:04:39.597Z,97.90
2022-12-23T02:05:39.761Z,98.00
2022-12-23T02:06:39.990Z,98.11
2022-12-23T02:07:40.187Z,98.00
2022-12-23T02:08:40.397Z,97.90
2022-12-23T02:09:40.601Z,98.00
2022-12-23T02:10:40.783Z,98.00
2022-12-23T02:11:40.963Z,98.72
2022-12-23T02:12:41.207Z,98.21
2022-12-23T02:13:42.431Z,98.32
2022-12-23T02:14:41.592Z,98.21
2022-12-23T02:15:41.796Z,97.90
2022-12-23T02:16:42.030Z,97.80
2022-12-23T02:17:42.242Z,97.49
2022-12-23T02:18:42.400Z,97.95
2022-12-23T02:19:42.632Z,98.00
2022-12-23T02:20:42.802Z,98.77
2022-12-23T02:21:43.047Z,98.32
2022-12-23T02:22:43.219Z,98.36
2022-12-23T02:23:43.414Z,98.21
2022-12-23T02:24:43.589Z,98.11
2022-12-23T02:25:43.788Z,98.36
2022-12-23T02:26:43.995Z,98.21
2022-12-23T02:27:44.189Z,98.21
2022-12-23T02:28:44.442Z,98.21
2022-12-23T02:29:44.555Z,97.95
2022-12-23T02:30:44.861Z,98.05
2022-12-23T02:31:44.950Z,97.95
2022-12-23T02:32:45.160Z,97.95
2022-12-23T02:33:45.399Z,97.69
2022-12-23T02:34:45.651Z,97.95
2022-12-23T02:35:45.800Z,98.15
2022-12-23T02:36:45.978Z,97.95
2022-12-23T02:37:46.182Z,97.80
2022-12-23T02:38:46.382Z,98.57
2022-12-23T02:39:46.623Z,98.21
2022-12-23T02:40:46.791Z,98.21
2022-12-23T02:41:46.989Z,98.21
2022-12-23T02:42:47.197Z,98.11
2022-12-23T02:43:47.410Z,98.42
2022-12-23T02:44:47.643Z,98.21
2022-12-23T02:45:47.869Z,98.11
2022-12-23T02:46:48.026Z,98.32
2022-12-23T02:47:48.223Z,98.00
2022-12-23T02:48:48.425Z,98.11
2022-12-23T02:49:48.656Z,98.52
2022-12-23T02:50:48.806Z,97.80
2022-12-23T02:51:49.008Z,97.75
2022-12-23T02:52:49.214Z,98.62
2022-12-23T02:53:49.380Z,98.00
2022-12-23T02:54:49.624Z,98.52
2022-12-23T02:55:49.811Z,98.00
2022-12-23T02:56:50.057Z,97.80
2022-12-23T02:57:50.256Z,98.11
2022-12-23T02:58:50.472Z,98.11
2022-12-23T02:59:50.726Z,98.25
2022-12-23T03:00:50.911Z,97.90
2022-12-23T03:01:51.236Z,97.90
2022-12-23T03:02:51.560Z,98.05
2022-12-23T03:03:51.672Z,98.67
2022-12-23T03:04:51.966Z,98.32
2022-12-23T03:05:52.052Z,98.15
2022-12-23T03:06:52.248Z,98.05
2022-12-23T03:07:52.487Z,98.32
2022-12-23T03:08:52.710Z,98.42
2022-12-23T03:09:52.940Z,98.00
2022-12-23T03:10:53.211Z,98.21
2022-12-23T03:11:53.382Z,98.52
2022-12-23T03:12:53.612Z,98.11
2022-12-23T03:13:53.854Z,98.42
2022-12-23T03:14:54.058Z,98.00
2022-12-23T03:15:54.430Z,98.00
2022-12-23T03:16:54.475Z,98.42
2022-12-23T03:17:54.691Z,98.72
2022-12-23T03:18:54.911Z,98.52
2022-12-23T03:19:55.150Z,98.42
2022-12-23T03:20:55.385Z,98.72
2022-12-23T03:21:55.544Z,98.72
2022-12-23T03:22:55.793Z,98.99
2022-12-23T03:23:56.159Z,98.72
2022-12-23T03:24:56.215Z,98.72
2022-12-23T03:25:56.426Z,98.58
2022-12-23T03:26:56.640Z,98.62
2022-12-23T03:27:56.867Z,98.21
2022-12-23T03:28:57.133Z,98.52
2022-12-23T03:29:57.303Z,99.34
2022-12-23T03:30:57.588Z,99.04
2022-12-23T03:31:57.732Z,98.72
2022-12-23T03:32:57.942Z,99.04
2022-12-23T03:33:58.193Z,99.04
2022-12-23T03:34:58.406Z,98.68
2022-12-23T03:35:58.588Z,98.72
2022-12-23T03:36:58.809Z,99.19
2022-12-23T03:37:59.029Z,99.09
2022-12-23T03:38:59.353Z,98.99
2022-12-23T03:39:59.486Z,99.09
2022-12-23T03:40:59.697Z,98.83
2022-12-23T03:41:59.913Z,98.72
2022-12-23T03:43:00.134Z,98.27
2022-12-23T03:44:00.338Z,98.93
2022-12-23T03:46:00.734Z,99.04
2022-12-23T03:47:00.869Z,98.83
2022-12-23T03:48:01.043Z,99.19
2022-12-23T03:49:01.256Z,98.93
2022-12-23T03:50:01.434Z,98.58
2022-12-23T03:51:01.612Z,98.42
2022-12-23T03:52:01.792Z,98.93
2022-12-23T03:53:01.998Z,99.14
2022-12-23T03:54:02.188Z,98.93
2022-12-23T03:55:02.340Z,98.93
2022-12-23T03:56:02.525Z,98.62
2022-12-23T03:57:02.692Z,98.93
2022-12-23T03:58:02.890Z,98.68
2022-12-23T03:59:03.117Z,99.09
2022-12-23T04:00:03.293Z,98.62
2022-12-23T04:01:03.493Z,98.27
2022-12-23T04:02:03.889Z,98.11
2022-12-23T04:03:03.934Z,98.11
2022-12-23T04:04:04.194Z,98.16
2022-12-23T04:05:04.337Z,98.37
2022-12-23T04:06:04.483Z,98.32
2022-12-23T04:07:04.698Z,98.42
2022-12-23T04:08:04.916Z,98.52
2022-12-23T04:09:05.195Z,98.52
2022-12-23T04:10:05.324Z,98.32
2022-12-23T04:11:05.536Z,97.90
2022-12-23T04:12:05.758Z,98.21
2022-12-23T04:13:05.995Z,98.37
2022-12-23T04:14:06.214Z,98.32
2022-12-23T04:15:12.602Z,98.21
2022-12-23T04:16:06.667Z,98.72
2022-12-23T04:17:06.798Z,98.62
2022-12-23T04:18:07.008Z,98.42
2022-12-23T04:19:07.203Z,98.32
2022-12-23T04:20:07.542Z,98.06
2022-12-23T04:21:07.617Z,98.11
2022-12-23T04:22:07.800Z,98.21
2022-12-23T04:23:07.999Z,98.11
2022-12-23T04:24:08.189Z,98.00
2022-12-23T04:25:08.423Z,98.21
2022-12-23T04:26:08.567Z,98.11
2022-12-23T04:27:08.750Z,98.11
2022-12-23T04:28:08.948Z,98.42
2022-12-23T04:29:09.133Z,98.52
2022-12-23T04:30:09.358Z,97.90
2022-12-23T04:31:09.595Z,98.52
2022-12-23T04:32:09.704Z,98.93
2022-12-23T04:33:09.932Z,98.11
2022-12-23T04:34:10.087Z,99.04
2022-12-23T04:35:10.311Z,99.34
2022-12-23T04:36:10.468Z,99.24
2022-12-23T04:37:10.649Z,98.93
2022-12-23T04:38:10.921Z,99.04
2022-12-23T04:39:11.028Z,98.93
2022-12-23T04:40:11.220Z,98.52
2022-12-23T04:41:11.403Z,98.42
2022-12-23T04:42:11.575Z,98.62
2022-12-23T04:43:11.795Z,98.42
2022-12-23T04:44:11.963Z,98.72
2022-12-23T04:45:12.133Z,98.42
2022-12-23T04:46:12.342Z,98.42
2022-12-23T04:47:12.485Z,98.11
2022-12-23T04:48:12.689Z,98.83
2022-12-23T04:49:12.867Z,98.42
2022-12-23T04:50:13.056Z,98.42
2022-12-23T04:51:13.243Z,98.32
2022-12-23T04:52:13.433Z,98.83
2022-12-23T04:53:13.599Z,98.52
2022-12-23T04:54:13.818Z,98.52
2022-12-23T04:55:13.980Z,98.72
2022-12-23T04:56:14.183Z,98.67
2022-12-23T04:57:14.363Z,99.04
2022-12-23T04:58:14.567Z,98.77
2022-12-23T04:59:14.775Z,99.08
2022-12-23T05:00:14.930Z,98.97
2022-12-23T05:01:15.220Z,99.49
2022-12-23T05:02:15.557Z,99.49
2022-12-23T05:03:15.650Z,99.49
2022-12-23T05:04:15.768Z,99.70
2022-12-23T05:05:15.920Z,99.49
2022-12-23T05:06:16.137Z,99.18
2022-12-23T05:07:16.300Z,99.39
2022-12-23T05:08:16.531Z,99.39
2022-12-23T05:09:16.678Z,99.18
2022-12-23T05:10:16.890Z,99.14
2022-12-23T05:11:17.089Z,99.80
2022-12-23T05:12:17.240Z,99.99
2022-12-23T05:13:17.454Z,99.55
2022-12-23T05:14:17.599Z,99.60
2022-12-23T05:15:17.799Z,99.76
2022-12-23T05:16:18.158Z,99.99
2022-12-23T05:17:18.173Z,99.99
2022-12-23T05:18:18.374Z,99.99
2022-12-23T05:19:18.555Z,99.96
2022-12-23T05:20:18.774Z,99.96
2022-12-23T05:21:18.936Z,99.86
2022-12-23T05:22:19.094Z,99.96
2022-12-23T05:23:19.289Z,99.99
2022-12-23T05:24:19.704Z,99.99
2022-12-23T05:25:19.664Z,99.99
2022-12-23T05:26:19.957Z,99.65
2022-12-23T05:27:20.037Z,99.99
2022-12-23T05:28:20.238Z,99.99
2022-12-23T05:29:20.419Z,99.99
2022-12-23T05:30:20.601Z,99.99
2022-12-23T05:31:20.850Z,99.99
2022-12-23T05:32:20.985Z,99.99
2022-12-23T05:33:21.234Z,99.99
2022-12-23T05:34:21.420Z,99.99
2022-12-23T05:35:21.703Z,99.99
2022-12-23T05:36:21.910Z,99.99
2022-12-23T05:37:22.065Z,99.99
2022-12-23T05:38:22.302Z,99.99
2022-12-23T05:39:22.496Z,99.99
2022-12-23T05:40:25.076Z,99.99
2022-12-23T05:41:22.979Z,99.99
2022-12-23T05:42:23.155Z,99.99
2022-12-23T05:43:23.365Z,99.99
2022-12-23T05:44:23.593Z,99.99
2022-12-23T05:45:23.791Z,99.99
2022-12-23T05:46:26.813Z,99.99
2022-12-23T05:47:24.219Z,99.99
2022-12-23T05:48:24.464Z,99.99
2022-12-23T05:49:24.678Z,99.99
2022-12-23T05:50:24.896Z,99.99
2022-12-23T05:51:25.095Z,99.65
2022-12-23T05:52:25.315Z,99.99
2022-12-23T05:53:25.557Z,99.99
2022-12-23T05:54:25.743Z,99.99
2022-12-23T05:55:26.005Z,99.99
2022-12-23T05:56:26.178Z,99.99
2022-12-23T05:57:26.411Z,99.99
2022-12-23T05:58:26.639Z,99.99
2022-12-23T05:59:30.920Z,99.96
2022-12-23T06:00:27.118Z,99.99
2022-12-23T06:01:27.345Z,99.99
2022-12-23T06:02:27.768Z,99.99
2022-12-23T06:03:28.039Z,99.99
2022-12-23T06:04:28.085Z,99.99
2022-12-23T06:05:28.241Z,99.99
2022-12-23T06:06:28.403Z,99.99
2022-12-23T06:07:28.620Z,99.99
2022-12-23T06:08:28.862Z,99.99
2022-12-23T06:09:29.028Z,99.99
2022-12-23T06:10:29.247Z,99.76
2022-12-23T06:11:29.546Z,99.99
2022-12-23T06:12:29.660Z,99.99
2022-12-23T06:13:29.881Z,99.99
2022-12-23T06:14:30.113Z,99.86
2022-12-23T06:15:30.644Z,99.86
2022-12-23T06:16:30.741Z,99.99
2022-12-23T06:17:30.806Z,99.96
2022-12-23T06:18:31.044Z,99.99
2022-12-23T06:19:31.253Z,99.99
2022-12-23T06:20:31.519Z,99.99
2022-12-23T06:21:31.705Z,99.99
2022-12-23T06:22:31.913Z,99.99
2022-12-23T06:23:32.142Z,99.99
2022-12-23T06:24:32.372Z,99.99
2022-12-23T06:25:32.652Z,99.99
2022-12-23T06:26:32.816Z,99.99
2022-12-23T06:27:33.033Z,99.76
2022-12-23T06:28:33.258Z,99.99
2022-12-23T06:29:33.482Z,99.99
2022-12-23T06:30:33.699Z,99.99
2022-12-23T06:31:33.943Z,99.99
2022-12-23T06:32:38.236Z,99.99
2022-12-23T06:33:34.307Z,99.99
2022-12-23T06:34:34.535Z,99.99
2022-12-23T06:35:34.897Z,99.99
2022-12-23T06:36:34.984Z,99.99
2022-12-23T06:37:35.304Z,99.99
2022-12-23T06:38:35.414Z,99.99
2022-12-23T06:39:35.680Z,99.99
2022-12-23T06:40:35.808Z,99.86
2022-12-23T06:41:35.984Z,99.44
2022-12-23T06:42:36.198Z,99.04
2022-12-23T06:43:36.335Z,99.34
2022-12-23T06:44:36.515Z,99.76
2022-12-23T06:45:36.725Z,99.99
2022-12-23T06:46:36.899Z,99.99
2022-12-23T06:47:37.119Z,99.99
2022-12-23T06:48:37.278Z,99.76
2022-12-23T06:49:37.454Z,99.55
2022-12-23T06:50:37.697Z,99.55
2022-12-23T06:51:37.819Z,99.76
2022-12-23T06:52:38.050Z,99.34
2022-12-23T06:53:38.195Z,99.04
2022-12-23T06:54:38.379Z,99.99
2022-12-23T06:55:38.578Z,99.86
2022-12-23T06:56:38.785Z,99.99
2022-12-23T06:57:39.004Z,99.04
2022-12-23T06:58:39.179Z,99.86
2022-12-23T06:59:39.373Z,99.44
2022-12-23T07:00:39.568Z,99.96
2022-12-23T07:01:40.060Z,99.96
2022-12-23T07:02:40.257Z,99.76
2022-12-23T07:03:40.181Z,99.99
2022-12-23T07:04:40.339Z,99.99
2022-12-23T07:05:40.662Z,99.81
2022-12-23T07:06:40.716Z,99.55
2022-12-23T07:07:40.943Z,99.44
2022-12-23T07:08:41.122Z,99.65
2022-12-23T07:09:41.319Z,99.55
2022-12-23T07:10:41.475Z,99.65
2022-12-23T07:11:41.666Z,99.24
2022-12-23T07:12:47.455Z,99.55
2022-12-23T07:13:42.050Z,99.99
2022-12-23T07:14:42.219Z,99.99
2022-12-23T07:15:42.399Z,99.99
2022-12-23T07:16:42.724Z,99.44
2022-12-23T07:17:42.788Z,99.99
2022-12-23T07:18:42.999Z,99.99
2022-12-23T07:19:43.157Z,99.86
2022-12-23T07:20:43.353Z,99.99
2022-12-23T07:21:43.643Z,99.99
2022-12-23T07:22:43.708Z,99.99
2022-12-23T07:23:43.865Z,99.76
2022-12-23T07:24:44.044Z,99.99
2022-12-23T07:25:44.251Z,99.86
2022-12-23T07:26:44.427Z,99.65
2022-12-23T07:27:44.600Z,99.99
2022-12-23T07:28:44.760Z,99.86
2022-12-23T07:29:44.949Z,99.99
2022-12-23T07:30:45.121Z,99.55
2022-12-23T07:31:45.473Z,99.99
2022-12-23T07:32:45.499Z,99.55
2022-12-23T07:33:45.663Z,99.76
2022-12-23T07:34:45.872Z,99.99
2022-12-23T07:35:46.039Z,99.86
2022-12-23T07:36:46.320Z,99.99
2022-12-23T07:37:46.471Z,99.60
2022-12-23T07:38:46.650Z,99.86
2022-12-23T07:39:46.830Z,99.99
2022-12-23T07:40:47.038Z,99.99
2022-12-23T07:41:47.282Z,99.99
2022-12-23T07:42:47.650Z,99.76
2022-12-23T07:43:47.699Z,99.14
2022-12-23T07:44:47.923Z,99.99
2022-12-23T07:45:52.537Z,99.99
2022-12-23T07:46:48.416Z,99.99
2022-12-23T07:47:48.622Z,99.99
2022-12-23T07:48:48.865Z,99.99
2022-12-23T07:49:49.051Z,99.99
2022-12-23T07:50:49.295Z,99.99
2022-12-23T07:51:49.515Z,99.99
2022-12-23T07:52:49.772Z,98.99
2022-12-23T07:53:49.943Z,99.40
2022-12-23T07:54:50.148Z,99.99
2022-12-23T07:55:56.277Z,99.99
2022-12-23T07:56:50.594Z,99.51
2022-12-23T07:57:50.847Z,99.76
2022-12-23T07:58:51.105Z,99.51
2022-12-23T07:59:51.331Z,99.99
2022-12-23T08:00:51.516Z,99.99
2022-12-23T08:01:51.822Z,99.96
2022-12-23T08:02:52.180Z,99.91
2022-12-23T08:03:52.288Z,99.99
2022-12-23T08:04:52.468Z,99.71
2022-12-23T08:05:52.589Z,99.60
2022-12-23T08:06:52.850Z,99.40
2022-12-23T08:07:53.032Z,98.99
2022-12-23T08:08:53.274Z,99.40
2022-12-23T08:09:53.452Z,99.30
2022-12-23T08:10:53.669Z,99.60
2022-12-23T08:11:53.888Z,99.30
2022-12-23T08:12:54.101Z,99.30
2022-12-23T08:13:54.356Z,99.09
2022-12-23T08:14:54.585Z,99.60
2022-12-23T08:15:54.770Z,99.81
2022-12-23T08:16:55.014Z,99.40
2022-12-23T08:17:55.190Z,99.30
2022-12-23T08:18:55.394Z,99.51
2022-12-23T08:19:55.680Z,98.99
2022-12-23T08:20:55.815Z,99.40
2022-12-23T08:21:56.178Z,99.40
2022-12-23T08:22:56.227Z,99.09
2022-12-23T08:23:56.431Z,99.51
2022-12-23T08:24:56.672Z,99.40
2022-12-23T08:25:56.846Z,99.30
2022-12-23T08:26:57.062Z,99.19
2022-12-23T08:27:57.438Z,99.40
2022-12-23T08:28:57.529Z,99.30
2022-12-23T08:29:57.702Z,98.99
2022-12-23T08:30:57.962Z,99.60
2022-12-23T08:31:58.130Z,99.81
2022-12-23T08:32:58.344Z,99.60
2022-12-23T08:33:58.577Z,99.51
2022-12-23T08:34:58.756Z,99.40
2022-12-23T08:35:58.951Z,99.60
2022-12-23T08:36:59.274Z,99.81
2022-12-23T08:37:59.393Z,99.30
2022-12-23T08:38:59.602Z,98.99
2022-12-23T08:39:59.786Z,99.19
2022-12-23T08:41:00.005Z,99.19
2022-12-23T08:42:00.212Z,99.30
2022-12-23T08:43:00.417Z,99.30
2022-12-23T08:44:00.696Z,99.09
2022-12-23T08:45:00.850Z,99.81
2022-12-23T08:46:01.145Z,99.71
2022-12-23T08:47:01.258Z,99.60
2022-12-23T08:48:01.467Z,99.81
2022-12-23T08:49:01.714Z,99.40
2022-12-23T08:50:01.897Z,99.71
2022-12-23T08:51:02.097Z,99.30
2022-12-23T08:52:02.400Z,99.71
2022-12-23T08:53:02.535Z,99.60
2022-12-23T08:54:02.843Z,99.71
2022-12-23T08:55:02.962Z,99.51
2022-12-23T08:56:03.519Z,99.51
2022-12-23T08:57:03.356Z,99.60
2022-12-23T08:58:03.557Z,99.09
2022-12-23T08:59:03.784Z,99.40
2022-12-23T09:00:03.960Z,99.91
2022-12-23T09:01:04.244Z,99.40
2022-12-23T09:02:04.537Z,99.60
2022-12-23T09:03:04.752Z,99.99
2022-12-23T09:04:04.913Z,99.99
2022-12-23T09:05:04.951Z,98.99
2022-12-23T09:06:05.145Z,99.81
2022-12-23T09:07:05.319Z,99.81
2022-12-23T09:08:05.488Z,99.60
2022-12-23T09:09:05.668Z,99.99
2022-12-23T09:10:05.813Z,99.99
2022-12-23T09:11:05.987Z,99.99
2022-12-23T09:12:06.187Z,99.99
2022-12-23T09:13:06.352Z,99.71
2022-12-23T09:14:06.530Z,99.35
2022-12-23T09:15:06.715Z,99.81
2022-12-23T09:16:06.944Z,99.66
2022-12-23T09:17:07.119Z,99.56
2022-12-23T09:18:07.231Z,99.46
2022-12-23T09:19:07.418Z,99.56
2022-12-23T09:20:07.640Z,99.60
2022-12-23T09:21:07.846Z,99.56
2022-12-23T09:22:08.083Z,99.77
2022-12-23T09:23:08.291Z,99.46
2022-12-23T09:24:08.476Z,99.25
2022-12-23T09:25:08.687Z,98.90
2022-12-23T09:26:08.893Z,99.66
2022-12-23T09:27:09.150Z,99.51
2022-12-23T09:28:09.325Z,99.21
2022-12-23T09:29:09.581Z,99.00
2022-12-23T09:30:09.742Z,99.00
2022-12-23T09:31:10.017Z,99.21
2022-12-23T09:32:10.155Z,99.21
2022-12-23T09:33:10.359Z,99.21
2022-12-23T09:34:10.591Z,99.00
2022-12-23T09:35:10.760Z,99.00
2022-12-23T09:36:10.976Z,98.90
2022-12-23T09:37:11.176Z,99.00
2022-12-23T09:38:11.414Z,99.10
2022-12-23T09:39:11.617Z,97.97
2022-12-23T09:40:11.778Z,97.92
2022-12-23T09:41:12.065Z,98.13
2022-12-23T09:42:12.178Z,97.92
2022-12-23T09:43:12.390Z,98.44
2022-12-23T09:44:12.587Z,98.03
2022-12-23T09:45:12.792Z,98.33
2022-12-23T09:46:13.051Z,97.92
2022-12-23T09:47:13.183Z,98.33
2022-12-23T09:48:13.364Z,97.41
2022-12-23T09:49:13.557Z,97.62
2022-12-23T09:50:13.780Z,97.72
2022-12-23T09:51:13.989Z,97.82
2022-12-23T09:52:14.148Z,97.72
2022-12-23T09:53:14.365Z,98.03
2022-12-23T09:54:17.040Z,97.31
2022-12-23T09:55:14.760Z,97.92
2022-12-23T09:56:14.927Z,97.72
2022-12-23T09:57:15.121Z,97.82
2022-12-23T09:58:15.307Z,97.82
2022-12-23T09:59:15.505Z,97.82
2022-12-23T10:00:15.727Z,97.88
2022-12-23T10:01:15.968Z,97.67
2022-12-23T10:02:16.202Z,97.67
2022-12-23T10:03:16.616Z,97.78
2022-12-23T10:04:16.581Z,97.16
2022-12-23T10:05:16.694Z,97.16
2022-12-23T10:06:16.889Z,97.16
2022-12-23T10:07:17.109Z,97.37
2022-12-23T10:08:17.247Z,97.73
2022-12-23T10:09:17.400Z,97.63
2022-12-23T10:10:17.568Z,97.02
2022-12-23T10:11:17.752Z,96.91
2022-12-23T10:12:22.237Z,97.02
2022-12-23T10:13:18.088Z,97.22
2022-12-23T10:14:18.273Z,96.81
2022-12-23T10:15:18.443Z,97.02
2022-12-23T10:16:18.698Z,96.91
2022-12-23T10:17:18.916Z,97.02
2022-12-23T10:18:18.984Z,96.81
2022-12-23T10:19:19.129Z,96.70
2022-12-23T10:20:19.482Z,96.70
2022-12-23T10:21:19.508Z,96.50
2022-12-23T10:22:19.701Z,96.30
2022-12-23T10:23:19.846Z,96.60
2022-12-23T10:24:20.056Z,96.35
2022-12-23T10:25:20.205Z,96.66
2022-12-23T10:26:20.407Z,96.35
2022-12-23T10:27:20.541Z,96.35
2022-12-23T10:28:20.737Z,96.35
2022-12-23T10:29:20.891Z,96.25
2022-12-23T10:30:53.518Z,96.10
2022-12-23T10:31:39.710Z,95.49
2022-12-23T10:32:21.571Z,95.64
2022-12-23T10:33:21.680Z,96.00
2022-12-23T10:34:21.871Z,95.79
2022-12-23T10:35:22.099Z,95.69
2022-12-23T10:36:22.347Z,96.10
2022-12-23T10:37:22.464Z,95.69
2022-12-23T10:38:22.664Z,95.69
2022-12-23T10:39:22.919Z,96.20
2022-12-23T10:40:23.079Z,95.49
2022-12-23T10:41:23.213Z,96.10
2022-12-23T10:42:23.344Z,95.59
2022-12-23T10:43:23.506Z,95.79
2022-12-23T10:44:23.661Z,95.59
2022-12-23T10:45:23.915Z,95.90
2022-12-23T10:46:24.043Z,95.43
2022-12-23T10:47:24.146Z,95.49
2022-12-23T10:48:24.307Z,95.64
2022-12-23T10:49:24.514Z,96.00
2022-12-23T10:50:24.729Z,95.59
2022-12-23T10:51:25.042Z,95.90
2022-12-23T10:52:25.023Z,95.59
2022-12-23T10:53:25.183Z,95.90
2022-12-23T10:54:25.397Z,95.69
2022-12-23T10:55:31.354Z,96.10
2022-12-23T10:56:25.687Z,95.90
2022-12-23T10:57:25.857Z,95.79
2022-12-23T10:58:26.032Z,95.69
2022-12-23T10:59:26.194Z,95.69
2022-12-23T11:00:26.609Z,95.28
2022-12-23T11:01:27.691Z,95.69
2022-12-23T11:02:26.907Z,95.49
2022-12-23T11:03:27.016Z,95.59
2022-12-23T11:04:27.031Z,95.59
2022-12-23T11:05:27.203Z,95.69
2022-12-23T11:06:33.136Z,95.28
2022-12-23T11:07:44.197Z,95.54
2022-12-23T11:08:27.723Z,96.06
2022-12-23T11:09:27.946Z,96.06
2022-12-23T11:10:28.070Z,95.65
2022-12-23T11:11:28.231Z,95.65
2022-12-23T11:12:28.511Z,95.44
2022-12-23T11:13:28.561Z,95.29
2022-12-23T11:14:28.696Z,95.44
2022-12-23T11:15:28.853Z,95.54
2022-12-23T11:16:29.105Z,95.61
2022-12-23T11:17:29.196Z,95.61
2022-12-23T11:18:29.326Z,95.20
2022-12-23T11:19:29.519Z,95.20
2022-12-23T11:20:29.700Z,95.03
2022-12-23T11:21:29.835Z,94.83
2022-12-23T11:22:30.006Z,95.65
2022-12-23T11:23:30.182Z,95.54
2022-12-23T11:24:30.320Z,95.03
2022-12-23T11:25:30.522Z,94.62
2022-12-23T11:26:30.697Z,94.32
2022-12-23T11:27:30.827Z,95.14
2022-12-23T11:28:30.988Z,95.03
2022-12-23T11:29:31.200Z,95.03
2022-12-23T11:30:31.323Z,95.24
2022-12-23T11:31:31.594Z,95.14
2022-12-23T11:32:31.654Z,95.65
2022-12-23T11:33:31.849Z,95.86
2022-12-23T11:34:31.986Z,95.44
2022-12-23T11:35:32.195Z,95.65
2022-12-23T11:36:32.371Z,95.14
2022-12-23T11:37:32.495Z,95.14
2022-12-23T11:38:32.711Z,95.09
2022-12-23T11:39:32.849Z,95.65
2022-12-23T11:40:33.034Z,95.50
2022-12-23T11:41:33.221Z,94.78
2022-12-23T11:42:33.351Z,95.20
2022-12-23T11:43:33.543Z,95.09
2022-12-23T11:44:33.706Z,94.99
2022-12-23T11:45:33.896Z,94.89
2022-12-23T11:46:34.020Z,93.96
2022-12-23T11:47:34.188Z,94.11
2022-12-23T11:48:34.494Z,95.29
2022-12-23T11:49:34.535Z,94.78
2022-12-23T11:50:34.716Z,94.68
2022-12-23T11:51:34.898Z,94.68
2022-12-23T11:52:35.054Z,94.17
2022-12-23T11:53:35.343Z,94.11
2022-12-23T11:54:35.371Z,94.07
2022-12-23T11:55:35.608Z,93.55
2022-12-23T11:56:35.765Z,93.55
2022-12-23T11:57:35.847Z,93.45
2022-12-23T11:58:36.019Z,93.39
2022-12-23T11:59:36.178Z,94.07
2022-12-23T12:00:36.310Z,94.17
2022-12-23T12:01:36.458Z,93.55
2022-12-23T12:02:36.760Z,93.55
2022-12-23T12:03:36.825Z,93.66
2022-12-23T12:04:36.961Z,93.55
2022-12-23T12:05:37.104Z,93.66
2022-12-23T12:06:37.249Z,93.25
2022-12-23T12:07:37.413Z,93.86
2022-12-23T12:08:37.559Z,93.96
2022-12-23T12:09:37.742Z,93.45
2022-12-23T12:10:37.898Z,94.17
2022-12-23T12:11:38.026Z,93.86
2022-12-23T12:12:38.173Z,93.25
2022-12-23T12:13:38.333Z,93.96
2022-12-23T12:14:38.550Z,92.94
2022-12-23T12:15:38.700Z,92.74
2022-12-23T12:16:39.000Z,93.15
2022-12-23T12:17:39.081Z,92.83
2022-12-23T12:18:39.281Z,93.45
2022-12-23T12:19:39.499Z,93.55
2022-12-23T12:20:39.671Z,92.83
2022-12-23T12:21:39.859Z,93.66
2022-12-23T12:22:40.052Z,93.35
2022-12-23T12:23:40.243Z,93.45
2022-12-23T12:24:40.469Z,93.39
2022-12-23T12:25:40.658Z,93.25
2022-12-23T12:26:40.823Z,93.35
2022-12-23T12:27:41.010Z,93.15
2022-12-23T12:28:41.202Z,93.86
2022-12-23T12:29:41.441Z,93.25
2022-12-23T12:30:41.717Z,93.15
2022-12-23T12:31:41.764Z,93.08
2022-12-23T12:32:41.948Z,93.80
2022-12-23T12:33:42.146Z,93.60
2022-12-23T12:34:42.361Z,93.90
2022-12-23T12:35:42.519Z,93.45
2022-12-23T12:36:42.821Z,93.08
2022-12-23T12:37:42.935Z,93.19
2022-12-23T12:38:43.092Z,93.60
2022-12-23T12:39:43.300Z,93.49
2022-12-23T12:40:43.524Z,93.90
2022-12-23T12:41:43.697Z,93.90
2022-12-23T12:42:43.834Z,93.29
2022-12-23T12:43:43.996Z,93.60
2022-12-23T12:44:44.161Z,93.90
2022-12-23T12:45:44.376Z,94.21
2022-12-23T12:46:44.531Z,94.11
2022-12-23T12:47:53.859Z,94.32
2022-12-23T12:48:44.856Z,94.32
2022-12-23T12:49:45.032Z,93.90
2022-12-23T12:50:45.210Z,93.29
2022-12-23T12:51:45.365Z,93.60
2022-12-23T12:52:45.575Z,93.33
2022-12-23T12:53:45.688Z,93.54
2022-12-23T12:54:45.872Z,93.85
2022-12-23T12:55:46.015Z,93.64